Terminal Aerodrome Forecast
Issued by NWS

Home | Current Version | Previous Version | Text Only | Print | Product List | Glossary On
Versions: 1 2 3 4 5 6 7 8 9 10 11 12 13 14 15 16
000
FTUS45 KREV 011120
TAFMMH
TAF
KMMH 011120Z 0112/0212 VRB05KT P6SM BKN040
     FM012300 29008KT P6SM VCTS SCT040CB BKN090
     FM020300 VRB03KT P6SM BKN050=

USA.gov is the U.S. government's official web portal to all federal, state and local government web resources and services.